createdAt,value
2023-05-03T00:01:19.285Z,102560.44
2023-05-03T00:04:24.307Z,102568.34
2023-05-03T00:07:27.148Z,102562.91
2023-05-03T00:10:29.897Z,102565.66
2023-05-03T00:13:32.714Z,102565.72
2023-05-03T00:16:35.533Z,102574.59
2023-05-03T00:19:40.053Z,102572.84
2023-05-03T00:22:42.784Z,102567.41
2023-05-03T00:25:45.579Z,102570.00
2023-05-03T00:28:48.290Z,102579.69
2023-05-03T00:31:51.118Z,102568.13
2023-05-03T00:34:56.185Z,102574.34
2023-05-03T00:37:58.918Z,102572.56
2023-05-03T00:41:03.088Z,102577.19
2023-05-03T00:44:06.003Z,102567.50
2023-05-03T00:47:09.636Z,102572.78
2023-05-03T00:50:14.139Z,102569.28
2023-05-03T00:53:17.460Z,102573.75
2023-05-03T00:56:22.936Z,102581.75
2023-05-03T00:59:26.375Z,102578.25
2023-05-03T01:02:29.475Z,102574.66
2023-05-03T01:05:39.367Z,102579.88
2023-05-03T01:08:56.060Z,102578.94
2023-05-03T01:12:09.918Z,102580.66
2023-05-03T01:15:18.078Z,102579.84
2023-05-03T01:18:25.788Z,102578.94
2023-05-03T01:21:34.004Z,102581.66
2023-05-03T01:24:38.663Z,102586.22
2023-05-03T01:27:43.796Z,102593.34
2023-05-03T01:30:47.570Z,102594.25
2023-05-03T01:33:57.195Z,102590.75
2023-05-03T01:37:03.192Z,102591.59
2023-05-03T01:40:09.958Z,102589.81
2023-05-03T01:43:16.972Z,102591.56
2023-05-03T01:46:19.835Z,102590.63
2023-05-03T01:49:22.672Z,102591.50
2023-05-03T01:52:25.887Z,102594.16
2023-05-03T01:55:28.659Z,102594.16
2023-05-03T01:58:32.818Z,102596.00
2023-05-03T02:01:35.797Z,102595.16
2023-05-03T02:04:38.722Z,102594.25
2023-05-03T02:07:41.878Z,102589.84
2023-05-03T02:10:45.304Z,102597.00
2023-05-03T02:13:51.019Z,102601.44
2023-05-03T02:16:55.727Z,102602.34
2023-05-03T02:19:58.714Z,102600.59
2023-05-03T02:23:01.812Z,102606.78
2023-05-03T02:26:04.644Z,102610.25
2023-05-03T02:29:10.093Z,102606.66
2023-05-03T02:32:12.906Z,102610.25
2023-05-03T02:35:15.767Z,102612.88
2023-05-03T02:38:18.563Z,102613.78
2023-05-03T02:41:21.355Z,102620.84
2023-05-03T02:44:26.172Z,102611.94
2023-05-03T02:47:28.992Z,102619.91
2023-05-03T02:50:31.852Z,102623.41
2023-05-03T02:53:34.866Z,102626.03
2023-05-03T02:56:39.564Z,102626.03
2023-05-03T02:59:43.887Z,102628.69
2023-05-03T03:02:46.821Z,102630.44
2023-05-03T03:05:49.741Z,102633.03
2023-05-03T03:08:52.496Z,102634.81
2023-05-03T03:11:55.577Z,102636.56
2023-05-03T03:14:59.925Z,102638.31
2023-05-03T03:18:05.148Z,102638.31
2023-05-03T03:21:08.132Z,102640.13
2023-05-03T03:24:12.566Z,102643.66
2023-05-03T03:27:16.409Z,102645.50
2023-05-03T03:30:20.825Z,102649.06
2023-05-03T03:33:35.567Z,102651.72
2023-05-03T03:36:44.703Z,102657.09
2023-05-03T03:39:47.621Z,102654.47
2023-05-03T03:42:50.773Z,102660.72
2023-05-03T03:45:55.111Z,102657.16
2023-05-03T03:48:58.596Z,102656.25
2023-05-03T03:52:03.757Z,102655.38
2023-05-03T03:55:08.581Z,102663.38
2023-05-03T03:58:12.064Z,102666.88
2023-05-03T04:01:16.705Z,102658.88
2023-05-03T04:04:19.932Z,102666.88
2023-05-03T04:07:23.841Z,102666.88
2023-05-03T04:10:27.044Z,102666.03
2023-05-03T04:13:29.792Z,102673.13
2023-05-03T04:16:34.660Z,102666.88
2023-05-03T04:19:39.709Z,102674.00
2023-05-03T04:22:43.047Z,102682.00
2023-05-03T04:25:48.784Z,102693.50
2023-05-03T04:28:53.823Z,102689.91
2023-05-03T04:32:01.257Z,102696.13
2023-05-03T04:35:05.487Z,102698.78
2023-05-03T04:38:08.932Z,102697.88
2023-05-03T04:41:14.106Z,102702.31
2023-05-03T04:44:18.867Z,102710.31
2023-05-03T04:47:25.784Z,102709.44
2023-05-03T04:50:29.103Z,102711.22
2023-05-03T04:53:32.244Z,102711.25
2023-05-03T04:56:41.004Z,102713.03
2023-05-03T04:59:50.041Z,102715.75
2023-05-03T05:02:57.888Z,102712.19
2023-05-03T05:06:04.310Z,102706.91
2023-05-03T05:09:21.968Z,102716.69
2023-05-03T05:12:26.184Z,102719.38
2023-05-03T05:15:30.495Z,102718.41
2023-05-03T05:18:35.466Z,102725.56
2023-05-03T05:21:40.164Z,102724.66
2023-05-03T05:24:42.922Z,102721.09
2023-05-03T05:27:47.793Z,102729.09
2023-05-03T05:30:51.659Z,102731.75
2023-05-03T05:33:56.471Z,102733.56
2023-05-03T05:36:59.404Z,102733.53
2023-05-03T05:40:03.465Z,102735.31
2023-05-03T05:43:12.528Z,102747.75
2023-05-03T05:46:21.166Z,102747.75
2023-05-03T05:49:26.506Z,102740.59
2023-05-03T05:52:29.310Z,102739.72
2023-05-03T05:55:32.392Z,102746.81
2023-05-03T05:58:38.147Z,102753.91
2023-05-03T06:01:44.463Z,102750.34
2023-05-03T06:04:49.145Z,102755.66
2023-05-03T06:07:52.425Z,102753.00
2023-05-03T06:10:55.247Z,102756.56
2023-05-03T06:13:59.346Z,102761.91
2023-05-03T06:17:02.173Z,102763.69
2023-05-03T06:20:11.729Z,102757.50
2023-05-03T06:23:15.381Z,102761.94
2023-05-03T06:26:19.168Z,102761.94
2023-05-03T06:29:21.979Z,102762.88
2023-05-03T06:32:24.784Z,102756.63
2023-05-03T06:35:29.466Z,102766.41
2023-05-03T06:38:32.332Z,102765.50
2023-05-03T06:41:35.132Z,102766.41
2023-05-03T06:44:38.670Z,102768.16
2023-05-03T06:47:42.696Z,102769.03
2023-05-03T06:50:47.335Z,102764.56
2023-05-03T06:53:50.972Z,102758.34
2023-05-03T06:56:53.671Z,102763.69
2023-05-03T06:59:56.607Z,102762.81
2023-05-03T07:02:59.413Z,102763.69
2023-05-03T07:06:03.983Z,102757.50
2023-05-03T07:09:07.095Z,102756.59
2023-05-03T07:12:09.980Z,102755.72
2023-05-03T07:15:12.823Z,102764.94
2023-05-03T07:18:15.611Z,102762.41
2023-05-03T07:21:19.844Z,102775.00
2023-05-03T07:24:24.809Z,102776.03
2023-05-03T07:27:28.182Z,102768.19
2023-05-03T07:30:30.969Z,102769.09
2023-05-03T07:33:35.680Z,102770.81
2023-05-03T07:36:40.425Z,102765.38
2023-05-03T07:39:43.371Z,102770.56
2023-05-03T07:42:46.478Z,102770.44
2023-05-03T07:45:49.327Z,102767.66
2023-05-03T07:48:52.188Z,102764.03
2023-05-03T07:51:56.288Z,102763.94
2023-05-03T07:54:59.046Z,102758.56
2023-05-03T07:58:01.854Z,102772.66
2023-05-03T08:01:04.695Z,102766.41
2023-05-03T08:04:07.948Z,102758.34
2023-05-03T08:07:12.199Z,102763.63
2023-05-03T08:10:15.324Z,102760.03
2023-05-03T08:13:18.218Z,102750.22
2023-05-03T08:16:21.392Z,102753.75
2023-05-03T08:19:24.308Z,102751.94
2023-05-03T08:22:28.411Z,102760.81
2023-05-03T08:25:31.531Z,102754.59
2023-05-03T08:28:34.316Z,102750.19
2023-05-03T08:31:37.478Z,102764.44
2023-05-03T08:34:40.701Z,102752.06
2023-05-03T08:37:45.342Z,102747.06
2023-05-03T08:40:51.889Z,102752.63
2023-05-03T08:43:56.271Z,102759.91
2023-05-03T08:47:00.468Z,102751.91
2023-05-03T08:50:05.381Z,102742.09
2023-05-03T08:53:10.375Z,102750.84
2023-05-03T08:56:26.829Z,102750.78
2023-05-03T08:59:30.151Z,102747.94
2023-05-03T09:02:36.943Z,102751.38
2023-05-03T09:05:41.516Z,102753.00
2023-05-03T09:08:45.793Z,102750.25
2023-05-03T09:11:48.587Z,102748.38
2023-05-03T09:14:51.409Z,102751.88
2023-05-03T09:18:15.730Z,102751.78
2023-05-03T09:21:20.432Z,102758.91
2023-05-03T09:24:24.807Z,102765.09
2023-05-03T09:27:28.676Z,102758.84
2023-05-03T09:30:31.509Z,102760.59
2023-05-03T09:33:34.754Z,102759.69
2023-05-03T09:36:48.226Z,102757.03
2023-05-03T09:40:07.778Z,102767.72
2023-05-03T09:43:11.999Z,102768.66
2023-05-03T09:46:15.166Z,102767.75
2023-05-03T09:49:18.832Z,102765.09
2023-05-03T09:52:23.380Z,102762.41
2023-05-03T09:55:27.840Z,102757.13
2023-05-03T09:58:31.848Z,102752.63
2023-05-03T10:01:36.659Z,102755.31
2023-05-03T10:04:43.422Z,102746.44
2023-05-03T10:07:46.903Z,102749.97
2023-05-03T10:10:54.357Z,102745.56
2023-05-03T10:13:57.346Z,102746.47
2023-05-03T10:17:03.663Z,102750.94
2023-05-03T10:20:14.134Z,102744.72
2023-05-03T10:23:16.978Z,102742.06
2023-05-03T10:26:22.543Z,102741.16
2023-05-03T10:29:51.834Z,102742.94
2023-05-03T10:32:55.188Z,102742.94
2023-05-03T10:35:59.123Z,102741.22
2023-05-03T10:39:04.472Z,102741.25
2023-05-03T10:42:10.436Z,102730.63
2023-05-03T10:45:23.309Z,102736.03
2023-05-03T10:48:26.649Z,102738.81
2023-05-03T10:51:36.941Z,102729.09
2023-05-03T10:54:40.047Z,102725.59
2023-05-03T10:57:46.804Z,102728.25
2023-05-03T11:00:52.146Z,102723.75
2023-05-03T11:04:03.486Z,102729.00
2023-05-03T11:07:06.296Z,102723.56
2023-05-03T11:10:19.069Z,102723.50
2023-05-03T11:13:23.305Z,102721.69
2023-05-03T11:16:27.221Z,102713.63
2023-05-03T11:19:30.768Z,102728.72
2023-05-03T11:22:33.667Z,102722.44
2023-05-03T11:25:36.511Z,102726.00
2023-05-03T11:28:41.308Z,102723.28
2023-05-03T11:31:44.566Z,102715.22
2023-05-03T11:34:47.415Z,102712.50
2023-05-03T11:37:50.520Z,102709.75
2023-05-03T11:40:53.301Z,102703.50
2023-05-03T11:44:12.147Z,102699.00
2023-05-03T11:47:18.752Z,102698.06
2023-05-03T11:50:28.994Z,102701.59
2023-05-03T11:53:31.900Z,102700.72
2023-05-03T11:56:35.545Z,102698.91
2023-05-03T11:59:40.827Z,102697.13
2023-05-03T12:02:44.451Z,102690.91
2023-05-03T12:05:48.358Z,102690.06
2023-05-03T12:08:51.918Z,102694.50
2023-05-03T12:11:56.118Z,102691.88
2023-05-03T12:15:04.164Z,102689.22
2023-05-03T12:18:10.541Z,102684.81
2023-05-03T12:24:24.604Z,102681.31
2023-05-03T12:27:28.347Z,102678.69
2023-05-03T12:30:33.991Z,102687.63
2023-05-03T12:33:38.859Z,102682.28
2023-05-03T12:36:43.829Z,102684.13
2023-05-03T12:39:54.563Z,102678.78
2023-05-03T12:43:06.356Z,102678.81
2023-05-03T12:49:22.621Z,102672.56
2023-05-03T12:55:35.309Z,102669.06
2023-05-03T13:05:10.875Z,102658.38
2023-05-03T13:08:21.083Z,102657.50
2023-05-03T13:11:25.454Z,102665.50
2023-05-03T13:14:29.232Z,102652.16
2023-05-03T13:17:33.434Z,102653.03
2023-05-03T13:20:37.201Z,102646.81
2023-05-03T13:23:39.993Z,102648.56
2023-05-03T13:26:42.767Z,102639.69
2023-05-03T13:29:48.300Z,102645.00
2023-05-03T13:32:53.429Z,102639.66
2023-05-03T13:35:56.608Z,102635.19
2023-05-03T13:38:59.675Z,102634.31
2023-05-03T13:42:03.452Z,102628.97
2023-05-03T13:45:06.980Z,102621.88
2023-05-03T13:48:18.725Z,102612.06
2023-05-03T13:51:22.011Z,102621.03
2023-05-03T13:54:24.867Z,102628.09
2023-05-03T13:57:27.684Z,102620.97
2023-05-03T14:00:32.373Z,102613.88
2023-05-03T14:03:36.682Z,102612.06
2023-05-03T14:06:41.239Z,102607.63
2023-05-03T14:09:44.822Z,102612.97
2023-05-03T14:12:47.661Z,102602.25
2023-05-03T14:15:51.049Z,102598.63
2023-05-03T14:18:55.650Z,102601.25
2023-05-03T14:21:59.565Z,102592.38
2023-05-03T14:25:03.041Z,102588.75
2023-05-03T14:28:06.330Z,102594.97
2023-05-03T14:31:09.682Z,102586.13
2023-05-03T14:34:13.944Z,102588.75
2023-05-03T14:37:17.172Z,102589.72
2023-05-03T14:40:20.665Z,102584.38
2023-05-03T14:43:23.480Z,102582.63
2023-05-03T14:46:26.449Z,102586.22
2023-05-03T14:49:33.600Z,102595.97
2023-05-03T14:52:37.582Z,102587.06
2023-05-03T14:55:40.292Z,102576.44
2023-05-03T14:58:43.715Z,102588.88
2023-05-03T15:01:46.502Z,102586.22
2023-05-03T15:04:50.655Z,102586.22
2023-05-03T15:07:53.692Z,102585.28
2023-05-03T15:10:56.515Z,102583.50
2023-05-03T15:13:59.685Z,102592.38
2023-05-03T15:17:02.603Z,102589.72
2023-05-03T15:20:10.315Z,102572.78
2023-05-03T15:23:13.171Z,102579.91
2023-05-03T15:26:16.035Z,102571.88
2023-05-03T15:29:18.790Z,102573.72
2023-05-03T15:32:21.927Z,102578.06
2023-05-03T15:35:26.172Z,102571.88
2023-05-03T15:38:29.687Z,102583.41
2023-05-03T15:41:32.521Z,102578.94
2023-05-03T15:44:35.272Z,102572.72
2023-05-03T15:47:38.639Z,102571.81
2023-05-03T15:50:42.741Z,102570.94
2023-05-03T15:53:45.565Z,102569.19
2023-05-03T15:56:50.632Z,102570.03
2023-05-03T15:59:54.110Z,102571.81
2023-05-03T16:02:57.796Z,102564.72
2023-05-03T16:06:02.007Z,102564.69
2023-05-03T16:09:06.460Z,102570.91
2023-05-03T16:12:09.255Z,102566.44
2023-05-03T16:15:12.959Z,102564.66
2023-05-03T16:18:15.854Z,102559.25
2023-05-03T16:21:20.046Z,102558.38
2023-05-03T16:24:22.749Z,102553.03
2023-05-03T16:27:25.499Z,102557.47
2023-05-03T16:30:28.580Z,102546.81
2023-05-03T16:33:31.340Z,102543.25
2023-05-03T16:36:42.334Z,102545.91
2023-05-03T16:39:45.112Z,102541.47
2023-05-03T16:42:49.869Z,102547.69
2023-05-03T16:45:58.220Z,102546.75
2023-05-03T16:49:01.508Z,102541.41
2023-05-03T16:52:05.839Z,102542.31
2023-05-03T16:55:10.812Z,102534.34
2023-05-03T16:58:13.788Z,102537.84
2023-05-03T17:01:17.052Z,102539.59
2023-05-03T17:04:19.881Z,102540.47
2023-05-03T17:07:24.010Z,102546.69
2023-05-03T17:10:26.957Z,102542.19
2023-05-03T17:13:29.763Z,102548.44
2023-05-03T17:16:32.573Z,102543.13
2023-05-03T17:19:35.680Z,102547.56
2023-05-03T17:22:40.374Z,102546.09
2023-05-03T17:25:44.353Z,102553.34
2023-05-03T17:28:48.768Z,102552.34
2023-05-03T17:31:52.366Z,102556.66
2023-05-03T17:34:55.146Z,102553.06
2023-05-03T17:38:00.115Z,102553.94
2023-05-03T17:41:07.397Z,102558.38
2023-05-03T17:44:10.429Z,102552.97
2023-05-03T17:47:13.709Z,102562.72
2023-05-03T17:50:17.062Z,102564.44
2023-05-03T17:53:21.242Z,102560.88
2023-05-03T17:56:24.741Z,102565.31
2023-05-03T17:59:27.495Z,102572.44
2023-05-03T18:02:31.074Z,102568.03
2023-05-03T18:05:37.151Z,102568.03
2023-05-03T18:08:42.365Z,102576.16
2023-05-03T18:11:45.469Z,102577.94
2023-05-03T18:14:48.227Z,102573.44
2023-05-03T18:17:51.041Z,102577.94
2023-05-03T18:21:00.560Z,102589.47
2023-05-03T18:24:05.504Z,102587.84
2023-05-03T18:27:09.062Z,102582.63
2023-05-03T18:30:12.863Z,102586.22
2023-05-03T18:33:15.736Z,102584.44
2023-05-03T18:36:18.632Z,102584.44
2023-05-03T18:39:23.076Z,102586.22
2023-05-03T18:42:25.876Z,102593.25
2023-05-03T18:45:28.662Z,102584.44
2023-05-03T18:48:31.500Z,102595.13
2023-05-03T18:51:34.284Z,102589.78
2023-05-03T18:54:38.457Z,102589.72
2023-05-03T18:57:41.256Z,102597.69
2023-05-03T19:00:44.100Z,102595.84
2023-05-03T19:03:46.892Z,102600.25
2023-05-03T19:06:49.707Z,102610.91
2023-05-03T19:09:55.632Z,102602.13
2023-05-03T19:12:58.611Z,102604.13
2023-05-03T19:16:02.522Z,102607.69
2023-05-03T19:19:05.357Z,102609.50
2023-05-03T19:22:08.073Z,102608.69
2023-05-03T19:25:12.348Z,102613.13
2023-05-03T19:28:15.185Z,102616.78
2023-05-03T19:31:18.112Z,102616.72
2023-05-03T19:34:20.883Z,102620.97
2023-05-03T19:37:23.659Z,102618.19
2023-05-03T19:40:27.743Z,102619.88
2023-05-03T19:43:31.332Z,102624.28
2023-05-03T19:46:34.748Z,102618.94
2023-05-03T19:49:37.791Z,102619.91
2023-05-03T19:52:41.954Z,102620.66
2023-05-03T19:55:55.656Z,102619.66
2023-05-03T19:58:58.472Z,102615.16
2023-05-03T20:02:01.308Z,102616.88
2023-05-03T20:05:05.022Z,102607.09
2023-05-03T20:08:07.794Z,102608.84
2023-05-03T20:11:11.966Z,102611.53
2023-05-03T20:14:14.747Z,102616.88
2023-05-03T20:17:17.580Z,102616.94
2023-05-03T20:20:20.350Z,102613.47
2023-05-03T20:23:23.398Z,102617.03
2023-05-03T20:26:27.676Z,102624.16
2023-05-03T20:29:30.479Z,102635.72
2023-05-03T20:32:33.372Z,102627.69
2023-05-03T20:35:37.963Z,102634.75
2023-05-03T20:38:40.769Z,102635.63
2023-05-03T20:41:44.905Z,102631.16
2023-05-03T20:44:47.676Z,102642.69
2023-05-03T20:47:50.437Z,102633.94
2023-05-03T20:50:53.727Z,102637.59
2023-05-03T20:53:56.465Z,102643.94
2023-05-03T20:57:00.557Z,102642.22
2023-05-03T21:00:04.438Z,102641.28
2023-05-03T21:03:07.692Z,102642.09
2023-05-03T21:06:10.494Z,102643.00
2023-05-03T21:09:13.373Z,102646.59
2023-05-03T21:12:17.682Z,102642.09
2023-05-03T21:15:20.441Z,102643.00
2023-05-03T21:18:24.725Z,102642.28
2023-05-03T21:21:27.536Z,102637.03
2023-05-03T21:24:31.035Z,102645.88
2023-05-03T21:27:35.293Z,102640.56
2023-05-03T21:30:38.118Z,102643.16
2023-05-03T21:33:40.886Z,102644.09
2023-05-03T21:36:43.748Z,102637.75
2023-05-03T21:40:00.578Z,102644.69
2023-05-03T21:43:07.546Z,102646.34
2023-05-03T21:46:10.913Z,102643.69
2023-05-03T21:49:13.998Z,102648.31
2023-05-03T21:52:16.727Z,102645.88
2023-05-03T21:55:19.843Z,102651.38
2023-05-03T21:58:24.074Z,102647.97
2023-05-03T22:01:26.856Z,102647.13
2023-05-03T22:04:29.681Z,102656.03
2023-05-03T22:07:32.481Z,102653.19
2023-05-03T22:10:35.216Z,102654.94
2023-05-03T22:13:50.319Z,102646.94
2023-05-03T22:16:57.756Z,102650.38
2023-05-03T22:20:00.485Z,102656.69
2023-05-03T22:23:03.420Z,102648.72
2023-05-03T22:26:06.281Z,102649.69
2023-05-03T22:29:10.351Z,102650.53
2023-05-03T22:32:13.453Z,102655.72
2023-05-03T22:35:16.545Z,102656.44
2023-05-03T22:38:19.455Z,102654.56
2023-05-03T22:41:22.196Z,102652.75
2023-05-03T22:44:26.318Z,102650.03
2023-05-03T22:47:29.201Z,102650.03
2023-05-03T22:50:32.005Z,102652.69
2023-05-03T22:53:34.793Z,102657.19
2023-05-03T22:56:37.571Z,102655.38
2023-05-03T22:59:45.679Z,102647.56
2023-05-03T23:02:48.519Z,102649.50
2023-05-03T23:05:53.470Z,102652.19
2023-05-03T23:08:56.439Z,102655.81
2023-05-03T23:12:00.428Z,102647.84
2023-05-03T23:15:04.948Z,102646.97
2023-05-03T23:18:08.500Z,102645.13
2023-05-03T23:21:11.404Z,102655.81
2023-05-03T23:24:14.146Z,102639.81
2023-05-03T23:27:16.898Z,102638.75
2023-05-03T23:30:21.731Z,102638.84
2023-05-03T23:33:24.929Z,102641.41
2023-05-03T23:36:28.503Z,102648.69
2023-05-03T23:39:31.275Z,102646.88
2023-05-03T23:42:34.097Z,102641.53
2023-05-03T23:45:38.275Z,102631.75
2023-05-03T23:48:41.037Z,102630.84
2023-05-03T23:51:43.934Z,102629.13
2023-05-03T23:54:46.724Z,102630.13
2023-05-03T23:57:49.457Z,102638.03
